Time;durP1;ratioP1;P1;durP2;ratioP2;P2;SDS_P1;SDS_P2;PMS_P1;PMS_P2;Temp;Humidity;BMP_temperature;BMP_pressure;BME280_temperature;BME280_humidity;BME280_pressure;Samples;Min_cycle;Max_cycle;Signal;HPM_P1;HPM_P2
2022/03/06 00:01:21;;;;;;;16.33;11.23;;;2.20;99.90;;;;;;5050973;28;20033;-81
2022/03/06 00:03:47;;;;;;;17.10;10.93;;;2.20;99.90;;;;;;5050518;28;20124;-81
2022/03/06 00:06:13;;;;;;;14.82;10.93;;;3.50;99.90;;;;;;5050718;28;20107;-81
2022/03/06 00:08:40;;;;;;;15.50;10.63;;;2.20;99.90;;;;;;5033949;28;20511;-81
2022/03/06 00:11:06;;;;;;;15.30;10.10;;;2.20;99.90;;;;;;5050929;28;20472;-81
2022/03/06 00:13:33;;;;;;;16.33;10.57;;;3.20;99.90;;;;;;5033906;28;20040;-81
2022/03/06 00:15:59;;;;;;;15.73;9.95;;;2.30;99.90;;;;;;5050495;28;20045;-81
2022/03/06 00:18:25;;;;;;;14.85;9.82;;;2.30;99.90;;;;;;5048210;28;20064;-81
2022/03/06 00:20:52;;;;;;;14.73;9.85;;;3.40;99.90;;;;;;5050409;28;20130;-81
2022/03/06 00:23:17;;;;;;;;;;;2.40;99.90;;;;;;5049760;28;20162;-81
2022/03/06 00:25:43;;;;;;;12.57;9.20;;;2.40;99.90;;;;;;5050019;28;20011;-82
2022/03/06 00:28:09;;;;;;;13.02;8.85;;;2.20;99.90;;;;;;5033434;28;20407;-81
2022/03/06 00:30:35;;;;;;;13.13;8.82;;;2.40;99.90;;;;;;5033310;28;20049;-82
2022/03/06 00:33:00;;;;;;;12.80;9.13;;;2.40;99.90;;;;;;5033527;28;20095;-81
2022/03/06 00:35:28;;;;;;;14.07;8.90;;;2.40;99.90;;;;;;5050135;28;20370;-82
2022/03/06 00:37:55;;;;;;;12.20;8.70;;;2.50;99.90;;;;;;5050569;28;20081;-81
2022/03/06 00:40:21;;;;;;;11.45;8.05;;;2.50;99.90;;;;;;5033957;28;20056;-81
2022/03/06 00:42:47;;;;;;;11.98;8.40;;;2.40;99.90;;;;;;5049776;28;20042;-82
2022/03/06 00:45:13;;;;;;;11.37;8.53;;;2.40;99.90;;;;;;5049929;28;20547;-82
2022/03/06 00:47:38;;;;;;;12.20;7.93;;;2.60;99.90;;;;;;5049805;28;20635;-81
2022/03/06 00:50:04;;;;;;;14.38;8.38;;;2.40;99.90;;;;;;5049853;28;20045;-81
2022/03/06 00:52:30;;;;;;;12.73;8.55;;;2.30;99.90;;;;;;5049905;28;20480;-81
2022/03/06 00:54:56;;;;;;;12.13;8.77;;;1.70;99.90;;;;;;5049897;28;20120;-81
2022/03/06 00:57:21;;;;;;;13.53;8.33;;;3.20;99.90;;;;;;5049888;28;20037;-81
2022/03/06 00:59:47;;;;;;;11.10;8.18;;;2.30;99.90;;;;;;5049687;28;20052;-81
2022/03/06 01:02:13;;;;;;;12.10;8.20;;;2.30;99.90;;;;;;5033154;28;20037;-81
2022/03/06 01:04:39;;;;;;;11.45;8.32;;;2.30;99.90;;;;;;5049392;28;20289;-81
2022/03/06 01:07:06;;;;;;;13.00;8.02;;;2.30;99.90;;;;;;5049683;28;20120;-81
2022/03/06 01:09:31;;;;;;;;;;;3.50;99.90;;;;;;5049749;28;21075;-81
2022/03/06 01:11:57;;;;;;;12.13;7.18;;;2.20;99.90;;;;;;5033013;28;19927;-81
2022/03/06 01:14:24;;;;;;;11.13;7.63;;;2.30;99.90;;;;;;5049559;28;20033;-81
2022/03/06 01:16:49;;;;;;;10.07;7.57;;;2.20;99.90;;;;;;5032541;28;20044;-81
2022/03/06 01:19:15;;;;;;;11.15;7.25;;;3.00;99.90;;;;;;5049832;28;20395;-80
2022/03/06 01:21:41;;;;;;;13.68;7.63;;;2.30;99.90;;;;;;5049107;28;20039;-81
2022/03/06 01:24:07;;;;;;;13.60;7.63;;;2.30;99.90;;;;;;5049697;28;20047;-81
2022/03/06 01:26:33;;;;;;;11.70;8.05;;;2.30;99.90;;;;;;5049087;28;20287;-81
2022/03/06 01:28:58;;;;;;;13.25;7.70;;;2.90;99.90;;;;;;5049246;28;20053;-81
2022/03/06 01:31:24;;;;;;;10.93;7.47;;;2.20;99.90;;;;;;5049367;28;20436;-81
2022/03/06 01:33:50;;;;;;;11.53;7.30;;;3.40;99.90;;;;;;5031577;28;20290;-81
2022/03/06 01:36:15;;;;;;;11.23;7.40;;;2.30;99.90;;;;;;5049314;28;20909;-82
2022/03/06 01:38:41;;;;;;;10.13;7.30;;;2.30;99.90;;;;;;5049115;28;20420;-81
2022/03/06 01:41:07;;;;;;;10.10;7.17;;;2.30;99.90;;;;;;5049230;28;20362;-81
2022/03/06 01:43:33;;;;;;;12.85;7.88;;;2.30;99.90;;;;;;5032902;28;20037;-81
2022/03/06 01:45:59;;;;;;;12.98;7.63;;;2.20;99.90;;;;;;5049192;28;20037;-81
2022/03/06 01:48:24;;;;;;;11.98;7.80;;;3.40;99.90;;;;;;5016394;28;20503;-81
2022/03/06 01:50:50;;;;;;;9.70;7.15;;;2.20;99.90;;;;;;5049192;28;20048;-82
2022/03/06 01:53:16;;;;;;;9.57;6.70;;;2.20;99.90;;;;;;5049559;28;20056;-82
2022/03/06 01:55:43;;;;;;;11.13;7.63;;;3.40;99.90;;;;;;5048762;28;20033;-82
2022/03/06 01:58:11;;;;;;;10.32;7.13;;;3.40;99.90;;;;;;5049415;28;20045;-82
2022/03/06 02:00:41;;;;;;;12.23;7.30;;;2.20;99.90;;;;;;5048740;28;20333;-81
2022/03/06 02:03:07;;;;;;;10.45;6.75;;;2.20;99.90;;;;;;5032977;28;20488;-81
2022/03/06 02:05:33;;;;;;;10.50;6.68;;;3.60;99.90;;;;;;5032675;28;20063;-81
2022/03/06 02:07:59;;;;;;;12.52;7.57;;;2.20;99.90;;;;;;5048764;28;20041;-81
2022/03/06 02:10:25;;;;;;;9.90;6.43;;;2.20;99.90;;;;;;5049222;28;20492;-81
2022/03/06 02:12:51;;;;;;;9.27;6.57;;;2.20;99.90;;;;;;5049095;28;20053;-81
2022/03/06 02:15:18;;;;;;;10.18;6.80;;;2.20;99.90;;;;;;5048839;28;20064;-81
2022/03/06 02:17:44;;;;;;;8.98;6.68;;;2.10;99.90;;;;;;5048668;28;20033;-81
2022/03/06 02:20:21;;;;;;;11.10;6.43;;;2.40;99.90;;;;;;5032328;28;20108;-81
2022/03/06 02:22:52;;;;;;;8.38;5.93;;;2.20;99.90;;;;;;5047151;28;20044;-81
2022/03/06 02:25:23;;;;;;;10.38;6.10;;;2.10;99.90;;;;;;5049041;28;20517;-81
2022/03/06 02:27:51;;;;;;;11.77;5.88;;;2.20;99.90;;;;;;5048781;28;20485;-81
2022/03/06 02:30:20;;;;;;;10.68;5.85;;;2.10;99.90;;;;;;5048695;28;20125;-81
2022/03/06 02:32:48;;;;;;;8.00;5.10;;;2.10;99.90;;;;;;5046184;28;20080;-81
2022/03/06 02:35:14;;;;;;;7.95;5.30;;;2.70;99.90;;;;;;5032267;28;20401;-81
2022/03/06 02:37:40;;;;;;;8.73;5.22;;;2.20;99.90;;;;;;5048333;28;20048;-81
2022/03/06 02:40:08;;;;;;;8.40;4.47;;;2.20;99.90;;;;;;5048980;28;20037;-81
2022/03/06 02:42:37;;;;;;;10.05;5.05;;;2.20;99.90;;;;;;5046803;28;20575;-81
2022/03/06 02:45:23;;;;;;;7.72;4.28;;;3.40;99.90;;;;;;5049641;28;20041;-80
2022/03/06 02:47:50;;;;;;;8.77;4.70;;;2.30;99.90;;;;;;5068315;28;20047;-82
2022/03/06 02:50:19;;;;;;;8.38;5.03;;;2.20;99.90;;;;;;5052164;28;20052;-82
2022/03/06 02:52:45;;;;;;;7.82;4.10;;;3.50;99.90;;;;;;5051802;28;20052;-82
2022/03/06 02:55:12;;;;;;;8.45;4.57;;;2.20;99.90;;;;;;5035528;28;20033;-82
2022/03/06 02:57:39;;;;;;;9.57;4.22;;;3.60;99.90;;;;;;5052002;28;20065;-82
2022/03/06 03:00:06;;;;;;;;;;;2.70;99.90;;;;;;5052555;28;20052;-82
2022/03/06 03:02:32;;;;;;;7.28;4.47;;;2.20;99.90;;;;;;5052739;28;20279;-82
2022/03/06 03:04:57;;;;;;;7.03;4.30;;;2.20;99.90;;;;;;5035481;28;20041;-82
2022/03/06 03:07:23;;;;;;;8.40;4.03;;;2.30;99.90;;;;;;5035694;28;20288;-82
2022/03/06 03:09:49;;;;;;;7.85;4.57;;;2.20;99.90;;;;;;5051510;28;20049;-81
2022/03/06 03:12:14;;;;;;;8.57;4.88;;;2.20;99.90;;;;;;5052030;28;20041;-82
2022/03/06 03:14:40;;;;;;;8.18;4.60;;;3.30;99.90;;;;;;5051363;28;20115;-82
2022/03/06 03:17:06;;;;;;;7.53;4.65;;;3.60;99.90;;;;;;5035226;28;20044;-82
2022/03/06 03:19:32;;;;;;;8.38;4.50;;;2.10;99.90;;;;;;5052081;28;20492;-82
2022/03/06 03:21:58;;;;;;;7.85;4.60;;;2.10;99.90;;;;;;5051526;28;20384;-82
2022/03/06 03:24:25;;;;;;;7.85;4.50;;;2.20;99.90;;;;;;5051667;28;20045;-82
2022/03/06 03:26:51;;;;;;;;;;;2.10;99.90;;;;;;5035352;28;20052;-82
2022/03/06 03:29:17;;;;;;;9.02;4.50;;;2.10;99.90;;;;;;5051305;28;19924;-82
2022/03/06 03:31:43;;;;;;;7.45;4.72;;;2.10;99.90;;;;;;5050585;28;20060;-82
2022/03/06 03:34:09;;;;;;;7.95;4.97;;;2.10;99.90;;;;;;5050104;28;20036;-82
2022/03/06 03:36:34;;;;;;;7.70;4.63;;;2.10;99.90;;;;;;5034038;28;20419;-81
2022/03/06 03:39:00;;;;;;;9.10;4.60;;;3.10;99.90;;;;;;5033818;28;20036;-81
2022/03/06 03:41:26;;;;;;;8.17;4.83;;;2.10;99.90;;;;;;5017185;28;20037;-81
2022/03/06 03:43:53;;;;;;;7.63;4.65;;;2.10;99.90;;;;;;5049870;28;20786;-81
2022/03/06 03:46:19;;;;;;;7.45;4.70;;;2.00;99.90;;;;;;5050320;28;20033;-81
2022/03/06 03:48:45;;;;;;;;;;;2.00;99.90;;;;;;5051207;28;20103;-80
2022/03/06 03:51:11;;;;;;;8.50;4.30;;;2.00;99.90;;;;;;5051172;28;19920;-81
2022/03/06 03:53:38;;;;;;;7.65;4.70;;;2.00;99.90;;;;;;5034658;28;20045;-81
2022/03/06 03:56:05;;;;;;;8.20;4.95;;;1.90;99.90;;;;;;5050170;28;20103;-81
2022/03/06 03:58:31;;;;;;;10.80;5.28;;;1.90;99.90;;;;;;5034010;28;20033;-81
2022/03/06 04:00:57;;;;;;;8.90;5.25;;;1.90;99.90;;;;;;5033852;28;20045;-81
2022/03/06 04:03:23;;;;;;;9.82;5.15;;;1.90;99.90;;;;;;5050700;28;20094;-82
2022/03/06 04:05:49;;;;;;;8.13;4.68;;;1.90;99.90;;;;;;5050719;28;20386;-81
2022/03/06 04:08:15;;;;;;;7.28;4.47;;;1.80;99.90;;;;;;5050662;28;20174;-81
2022/03/06 04:10:41;;;;;;;7.80;5.30;;;1.90;99.90;;;;;;5050586;28;20166;-81
2022/03/06 04:13:07;;;;;;;8.68;5.00;;;1.80;99.90;;;;;;5048073;28;20048;-81
2022/03/06 04:15:32;;;;;;;11.13;4.88;;;1.80;99.90;;;;;;5050758;28;20373;-81
2022/03/06 04:17:58;;;;;;;10.23;5.67;;;3.00;99.90;;;;;;5033877;28;20044;-81
2022/03/06 04:20:24;;;;;;;9.77;5.30;;;1.80;99.90;;;;;;5050328;28;20037;-81
2022/03/06 04:22:50;;;;;;;7.85;4.97;;;1.80;99.90;;;;;;5050436;28;20039;-81
2022/03/06 04:25:16;;;;;;;9.10;4.57;;;1.70;99.90;;;;;;5048343;28;20067;-82
2022/03/06 04:27:42;;;;;;;8.90;4.93;;;1.70;99.90;;;;;;5050397;28;20041;-82
2022/03/06 04:30:09;;;;;;;6.68;4.68;;;2.50;99.90;;;;;;5049827;28;20505;-81
2022/03/06 04:32:35;;;;;;;8.82;5.65;;;1.60;99.90;;;;;;5050572;28;20051;-82
2022/03/06 04:35:01;;;;;;;7.50;4.85;;;2.50;99.90;;;;;;5033082;28;20037;-82
2022/03/06 04:37:27;;;;;;;8.77;4.72;;;1.60;99.90;;;;;;5050316;28;20438;-82
2022/03/06 04:39:52;;;;;;;8.17;4.97;;;1.50;99.90;;;;;;5050070;28;20091;-81
2022/03/06 04:42:18;;;;;;;8.20;4.72;;;1.50;99.90;;;;;;5050069;28;20276;-82
2022/03/06 04:44:44;;;;;;;7.60;4.80;;;1.50;99.90;;;;;;5033326;28;20037;-81
2022/03/06 04:47:09;;;;;;;8.13;4.97;;;1.40;99.90;;;;;;5049606;28;20284;-81
2022/03/06 04:49:36;;;;;;;7.55;4.75;;;1.50;99.90;;;;;;5033939;28;20038;-81
2022/03/06 04:52:02;;;;;;;11.00;4.75;;;1.40;99.90;;;;;;5049810;28;20087;-81
2022/03/06 04:54:28;;;;;;;11.63;4.85;;;1.40;99.90;;;;;;5049846;28;20044;-81
2022/03/06 04:56:53;;;;;;;7.90;4.47;;;1.30;99.90;;;;;;5049420;28;20033;-81
2022/03/06 04:59:19;;;;;;;9.63;5.22;;;2.10;99.90;;;;;;5050118;28;20072;-81
2022/03/06 05:01:45;;;;;;;11.40;4.70;;;1.20;99.90;;;;;;5015094;28;20040;-81
2022/03/06 05:04:11;;;;;;;8.52;4.65;;;1.20;99.90;;;;;;5032844;28;20037;-80
2022/03/06 05:06:36;;;;;;;6.57;4.22;;;1.20;99.90;;;;;;5050013;28;20124;-81
2022/03/06 05:09:03;;;;;;;7.05;4.65;;;1.20;99.90;;;;;;5030462;28;20037;-80
2022/03/06 05:11:29;;;;;;;8.10;5.10;;;1.40;99.90;;;;;;5049585;28;20033;-80
2022/03/06 05:13:54;;;;;;;10.10;4.80;;;1.10;99.90;;;;;;5049362;28;20059;-80
2022/03/06 05:16:20;;;;;;;13.88;4.68;;;1.10;99.90;;;;;;5049447;28;20045;-81
2022/03/06 05:18:46;;;;;;;7.18;4.50;;;1.00;99.90;;;;;;5049905;28;20037;-81
2022/03/06 05:21:13;;;;;;;8.85;4.30;;;1.10;99.90;;;;;;5049104;28;20036;-80
2022/03/06 05:23:38;;;;;;;7.05;4.20;;;1.00;99.90;;;;;;5032946;28;20091;-80
2022/03/06 05:26:04;;;;;;;10.32;4.80;;;1.00;99.90;;;;;;5032595;28;20041;-80
2022/03/06 05:28:30;;;;;;;7.45;4.47;;;1.00;99.90;;;;;;5049438;28;20053;-80
2022/03/06 05:30:56;;;;;;;8.45;4.50;;;1.20;99.90;;;;;;5048976;28;20467;-81
2022/03/06 05:33:23;;;;;;;7.78;4.85;;;0.90;99.90;;;;;;5033272;28;20455;-81
2022/03/06 05:35:49;;;;;;;9.02;4.40;;;2.70;99.90;;;;;;5032824;28;20049;-81
2022/03/06 05:38:15;;;;;;;8.25;4.80;;;0.90;99.90;;;;;;5032636;28;20384;-81
2022/03/06 05:40:41;;;;;;;6.90;4.45;;;0.80;99.90;;;;;;5016912;28;20119;-81
2022/03/06 05:43:06;;;;;;;8.98;4.85;;;0.80;99.90;;;;;;5032291;28;20041;-81
2022/03/06 05:45:32;;;;;;;7.27;5.10;;;0.80;99.90;;;;;;5049305;28;20052;-82
2022/03/06 05:47:58;;;;;;;7.10;4.87;;;0.80;99.90;;;;;;5048816;28;20287;-81
2022/03/06 05:50:23;;;;;;;8.30;4.50;;;1.70;99.90;;;;;;5049461;28;20036;-82
2022/03/06 05:52:49;;;;;;;8.65;4.43;;;0.80;99.90;;;;;;5049509;28;20282;-81
2022/03/06 05:55:15;;;;;;;12.23;5.22;;;1.40;99.90;;;;;;5048678;28;20036;-81
2022/03/06 05:57:41;;;;;;;9.43;4.43;;;0.70;99.90;;;;;;5049369;28;20036;-81
2022/03/06 06:00:08;;;;;;;6.72;4.30;;;1.00;99.90;;;;;;5032365;28;20373;-81
2022/03/06 06:02:38;;;;;;;8.13;4.90;;;0.70;99.90;;;;;;5016183;28;20037;-81
2022/03/06 06:05:05;;;;;;;8.50;4.53;;;0.70;99.90;;;;;;5032103;28;20049;-81
2022/03/06 06:07:31;;;;;;;9.60;5.28;;;0.70;99.90;;;;;;5049451;28;20037;-81
2022/03/06 06:09:57;;;;;;;6.47;4.95;;;0.70;99.90;;;;;;5032023;28;20073;-81
2022/03/06 06:12:22;;;;;;;7.63;4.93;;;0.70;99.90;;;;;;5049001;28;20425;-81
2022/03/06 06:14:48;;;;;;;7.45;4.70;;;0.70;99.90;;;;;;5016025;28;20049;-81
2022/03/06 06:17:14;;;;;;;7.28;4.57;;;1.10;99.90;;;;;;5048637;28;20041;-81
2022/03/06 06:19:40;;;;;;;6.50;4.80;;;0.70;99.90;;;;;;5049515;28;20033;-81
2022/03/06 06:22:06;;;;;;;6.20;4.40;;;0.50;99.90;;;;;;5036211;28;20099;-81
2022/03/06 06:24:31;;;;;;;7.15;4.00;;;0.60;99.90;;;;;;5052730;28;20040;-81
2022/03/06 06:26:57;;;;;;;9.60;3.90;;;1.40;99.90;;;;;;5052713;28;20044;-81
2022/03/06 06:29:23;;;;;;;8.02;4.15;;;0.70;99.90;;;;;;5052370;28;20298;-81
2022/03/06 06:31:50;;;;;;;5.65;4.00;;;1.10;99.90;;;;;;5036253;28;20049;-81
2022/03/06 06:34:16;;;;;;;6.75;3.63;;;0.80;99.90;;;;;;5035318;28;20111;-81
2022/03/06 06:36:41;;;;;;;6.57;3.83;;;2.00;99.90;;;;;;5036360;28;20033;-82
2022/03/06 06:39:09;;;;;;;4.72;3.40;;;0.80;99.90;;;;;;5052301;28;20044;-81
2022/03/06 06:41:38;;;;;;;5.65;3.47;;;0.90;99.90;;;;;;5052470;28;20041;-81
2022/03/06 06:44:03;;;;;;;5.13;3.20;;;0.90;99.90;;;;;;5052039;28;20102;-81
2022/03/06 06:46:29;;;;;;;5.05;3.25;;;0.90;99.90;;;;;;5052502;28;20120;-81
2022/03/06 06:48:55;;;;;;;5.87;3.70;;;1.00;99.90;;;;;;5052874;28;20044;-81
2022/03/06 06:51:20;;;;;;;6.00;3.17;;;1.10;99.90;;;;;;5035670;28;20411;-81
2022/03/06 06:53:46;;;;;;;4.95;3.25;;;2.10;99.90;;;;;;5052265;28;20767;-81
2022/03/06 06:56:12;;;;;;;4.73;2.80;;;1.30;99.90;;;;;;5051698;28;20041;-82
2022/03/06 06:58:38;;;;;;;3.40;2.80;;;1.40;99.90;;;;;;5035722;28;20283;-81
2022/03/06 07:01:03;;;;;;;4.78;3.05;;;1.50;99.90;;;;;;5051552;28;20291;-81
2022/03/06 07:03:29;;;;;;;4.00;2.67;;;1.60;99.90;;;;;;5052408;28;20079;-81
2022/03/06 07:05:56;;;;;;;3.43;2.73;;;2.80;99.90;;;;;;5052552;28;20292;-81
2022/03/06 07:08:23;;;;;;;3.83;2.92;;;1.80;99.90;;;;;;5035441;28;20052;-81
2022/03/06 07:10:48;;;;;;;4.18;2.85;;;1.90;99.90;;;;;;5034225;28;20051;-81
2022/03/06 07:13:14;;;;;;;5.30;2.78;;;2.00;99.90;;;;;;5050276;28;20045;-81
2022/03/06 07:15:40;;;;;;;5.15;2.60;;;2.10;99.90;;;;;;5034270;28;20411;-82
2022/03/06 07:18:06;;;;;;;5.28;2.97;;;2.20;99.90;;;;;;5050323;28;20488;-81
2022/03/06 07:20:32;;;;;;;3.72;2.78;;;3.90;99.90;;;;;;5050702;28;20124;-82
2022/03/06 07:22:58;;;;;;;4.25;2.58;;;2.40;99.90;;;;;;5050808;28;20037;-82
2022/03/06 07:25:24;;;;;;;3.08;2.78;;;3.20;99.90;;;;;;5033443;28;20074;-82
2022/03/06 07:27:50;;;;;;;4.85;2.70;;;3.80;99.90;;;;;;5034093;28;20211;-82
2022/03/06 07:30:15;;;;;;;3.95;2.67;;;2.80;99.90;;;;;;5033142;28;20052;-82
2022/03/06 07:32:51;;;;;;;4.53;2.60;;;2.90;99.90;;;;;;5031866;28;20041;-82
2022/03/06 07:35:19;;;;;;;3.35;2.70;;;3.10;99.90;;;;;;5050150;28;20127;-82
2022/03/06 07:37:45;;;;;;;3.72;2.60;;;3.30;99.90;;;;;;5034318;28;20089;-82
2022/03/06 07:40:13;;;;;;;5.13;2.42;;;3.20;99.90;;;;;;5050686;28;20032;-82
2022/03/06 07:42:39;;;;;;;4.07;2.60;;;3.40;99.90;;;;;;5034648;28;20033;-82
2022/03/06 07:45:06;;;;;;;4.15;2.47;;;3.60;99.90;;;;;;5051100;28;20437;-82
2022/03/06 07:47:32;;;;;;;3.72;2.40;;;3.60;99.90;;;;;;5034410;28;20055;-82
2022/03/06 07:49:58;;;;;;;5.00;2.65;;;4.80;99.90;;;;;;5051016;28;20037;-82
2022/03/06 07:52:24;;;;;;;2.90;2.40;;;4.00;99.90;;;;;;5034202;28;20509;-82
2022/03/06 07:54:49;;;;;;;3.03;2.33;;;4.10;99.90;;;;;;5051335;28;20049;-82
2022/03/06 07:57:15;;;;;;;8.20;2.60;;;4.10;99.90;;;;;;5050682;28;20298;-83
2022/03/06 07:59:41;;;;;;;3.63;2.50;;;4.10;99.90;;;;;;5034691;28;20280;-83
2022/03/06 08:02:06;;;;;;;3.33;2.27;;;4.40;99.90;;;;;;5034083;28;20033;-82
2022/03/06 08:04:32;;;;;;;5.27;2.47;;;4.90;99.90;;;;;;5034523;28;20294;-83
2022/03/06 08:06:58;;;;;;;3.83;2.00;;;5.50;99.90;;;;;;5050963;28;20041;-81
2022/03/06 08:09:26;;;;;;;3.50;2.07;;;6.30;99.90;;;;;;5050091;28;20041;-81
2022/03/06 08:11:53;;;;;;;3.90;1.90;;;6.40;99.90;;;;;;5050632;28;20297;-81
2022/03/06 08:14:19;;;;;;;3.63;2.08;;;7.50;99.90;;;;;;5034030;28;20400;-81
2022/03/06 08:16:44;;;;;;;3.03;2.05;;;8.00;99.90;;;;;;5050619;28;20120;-82
2022/03/06 08:19:10;;;;;;;6.25;2.10;;;7.10;99.90;;;;;;5050889;28;20037;-82
2022/03/06 08:21:36;;;;;;;4.13;1.95;;;7.90;99.90;;;;;;5050677;28;20029;-85
2022/03/06 08:24:02;;;;;;;2.45;1.83;;;8.00;99.90;;;;;;5050647;28;20029;-84
2022/03/06 08:26:27;;;;;;;4.13;1.90;;;8.10;99.90;;;;;;5033555;28;20505;-85
2022/03/06 08:28:53;;;;;;;3.22;1.90;;;8.70;99.60;;;;;;5034071;28;20769;-85
2022/03/06 08:31:19;;;;;;;3.92;2.05;;;9.20;99.90;;;;;;5033473;28;20033;-85
2022/03/06 08:33:45;;;;;;;3.58;1.63;;;9.20;97.90;;;;;;5050477;28;20029;-86
2022/03/06 08:36:11;;;;;;;2.30;1.60;;;9.40;98.20;;;;;;5049783;28;20041;-84
2022/03/06 08:38:37;;;;;;;4.95;2.10;;;9.40;96.30;;;;;;5050375;28;20041;-85
2022/03/06 08:41:03;;;;;;;3.17;1.50;;;9.20;96.50;;;;;;5050694;28;20116;-84
2022/03/06 08:43:29;;;;;;;2.72;1.60;;;9.70;95.00;;;;;;5049324;28;20041;-85
2022/03/06 08:45:54;;;;;;;2.95;1.50;;;9.10;95.60;;;;;;5050237;28;20048;-85
2022/03/06 08:48:21;;;;;;;3.95;1.60;;;9.50;93.90;;;;;;5033083;28;20043;-81
2022/03/06 08:50:49;;;;;;;3.17;1.73;;;9.40;93.50;;;;;;5017342;28;20041;-82
2022/03/06 08:53:16;;;;;;;3.22;1.60;;;9.80;91.40;;;;;;5033062;28;20037;-83
2022/03/06 08:55:42;;;;;;;4.00;1.45;;;9.70;93.90;;;;;;5033538;28;20523;-83
2022/03/06 08:58:08;;;;;;;2.83;1.65;;;9.60;91.90;;;;;;5015415;28;20030;-84
2022/03/06 09:00:34;;;;;;;2.45;1.48;;;10.00;92.60;;;;;;5033255;28;20033;-84
2022/03/06 09:02:59;;;;;;;3.65;1.70;;;9.70;92.50;;;;;;5049607;28;20047;-83
2022/03/06 09:05:25;;;;;;;4.68;1.70;;;9.60;91.50;;;;;;5032601;28;20480;-85
2022/03/06 09:07:51;;;;;;;3.72;1.67;;;9.90;92.10;;;;;;5033624;28;20037;-85
2022/03/06 09:10:16;;;;;;;3.95;1.75;;;10.20;93.00;;;;;;5015198;28;20044;-85
2022/03/06 09:12:42;;;;;;;3.55;1.58;;;10.30;92.10;;;;;;5016630;28;20037;-84
2022/03/06 09:15:09;;;;;;;3.22;1.58;;;10.30;91.00;;;;;;5032859;28;20037;-85
2022/03/06 09:17:35;;;;;;;2.72;1.50;;;10.30;90.60;;;;;;5049536;28;20033;-85
2022/03/06 09:20:02;;;;;;;2.78;1.58;;;10.50;91.00;;;;;;5032717;28;20039;-85
2022/03/06 09:22:28;;;;;;;3.60;1.52;;;10.10;90.40;;;;;;5048650;28;20072;-84
2022/03/06 09:24:54;;;;;;;3.80;1.63;;;10.50;90.70;;;;;;5033005;28;20118;-82
2022/03/06 09:27:20;;;;;;;4.25;1.63;;;10.50;88.00;;;;;;5032843;28;20037;-82
2022/03/06 09:29:45;;;;;;;2.72;1.60;;;10.40;89.20;;;;;;5049495;28;20049;-82
2022/03/06 09:32:11;;;;;;;2.78;1.80;;;10.70;87.30;;;;;;5032282;28;20049;-81
2022/03/06 09:34:37;;;;;;;3.75;1.83;;;10.50;87.70;;;;;;5032658;28;20052;-83
2022/03/06 09:37:03;;;;;;;2.80;1.77;;;10.40;89.80;;;;;;5049317;28;20037;-83
2022/03/06 09:39:29;;;;;;;4.95;1.75;;;10.70;90.40;;;;;;5015634;28;20036;-83
2022/03/06 09:41:55;;;;;;;2.45;1.48;;;11.20;89.00;;;;;;5049719;28;20037;-82
2022/03/06 09:44:25;;;;;;;2.35;1.45;;;10.50;88.60;;;;;;5032407;28;20098;-83
2022/03/06 09:46:52;;;;;;;3.35;1.63;;;10.90;88.60;;;;;;5047481;28;20052;-81
2022/03/06 09:49:18;;;;;;;5.40;1.77;;;10.50;86.30;;;;;;5032379;28;20044;-82
2022/03/06 09:51:44;;;;;;;2.95;1.60;;;11.10;87.80;;;;;;5049257;28;20052;-82
2022/03/06 09:54:12;;;;;;;4.72;1.85;;;11.10;84.80;;;;;;5016046;28;20131;-82
2022/03/06 09:56:38;;;;;;;3.33;1.60;;;11.50;83.80;;;;;;5052809;28;20044;-83
2022/03/06 09:59:05;;;;;;;3.13;1.90;;;11.50;81.70;;;;;;5037140;28;20029;-85
2022/03/06 10:01:30;;;;;;;3.72;2.13;;;12.00;82.20;;;;;;5036270;28;20075;-82
2022/03/06 10:03:56;;;;;;;3.58;1.80;;;11.80;82.50;;;;;;5051428;28;20083;-81
2022/03/06 10:06:23;;;;;;;3.70;1.60;;;12.10;81.40;;;;;;5024803;28;20120;-83
2022/03/06 10:09:04;;;;;;;2.63;1.50;;;11.90;81.50;;;;;;5036733;28;20111;-83
2022/03/06 10:11:31;;;;;;;3.70;1.83;;;11.90;80.40;;;;;;5052051;28;20041;-83
2022/03/06 10:13:57;;;;;;;3.88;1.63;;;12.50;79.50;;;;;;5048425;28;20068;-83
2022/03/06 10:16:23;;;;;;;3.92;1.70;;;12.50;76.20;;;;;;5036744;28;20467;-82
2022/03/06 10:18:50;;;;;;;3.22;1.77;;;12.40;80.10;;;;;;5004197;28;20029;-82
2022/03/06 10:21:28;;;;;;;3.50;1.55;;;12.00;79.40;;;;;;5017059;28;20055;-82
2022/03/06 10:24:00;;;;;;;2.40;1.63;;;12.20;80.60;;;;;;5053166;28;20044;-82
2022/03/06 10:26:30;;;;;;;4.32;1.80;;;12.00;81.20;;;;;;5052584;28;20116;-82
2022/03/06 10:29:02;;;;;;;4.03;1.98;;;12.80;82.70;;;;;;5034759;28;20622;-83
2022/03/06 10:31:52;;;;;;;4.05;1.80;;;12.40;78.80;;;;;;5035954;28;20442;-83
2022/03/06 10:34:18;;;;;;;4.35;1.83;;;12.50;79.90;;;;;;5034515;28;20106;-83
2022/03/06 10:36:47;;;;;;;6.68;1.92;;;13.70;77.70;;;;;;5036181;28;20405;-83
2022/03/06 10:39:21;;;;;;;4.32;1.98;;;13.40;76.20;;;;;;5053553;28;20029;-82
2022/03/06 10:41:53;;;;;;;4.38;2.05;;;13.50;74.30;;;;;;5052454;28;20048;-83
2022/03/06 10:44:20;;;;;;;3.72;1.70;;;12.30;78.10;;;;;;5051917;28;20183;-83
2022/03/06 10:47:03;;;;;;;3.50;1.48;;;12.80;78.70;;;;;;5050455;28;20052;-83
2022/03/06 10:49:30;;;;;;;3.63;1.80;;;13.00;80.40;;;;;;5034020;28;20047;-83
2022/03/06 10:51:56;;;;;;;3.97;1.77;;;13.20;80.40;;;;;;5052583;28;20068;-83
2022/03/06 10:54:22;;;;;;;3.28;1.80;;;13.60;77.60;;;;;;5002253;28;20550;-83
2022/03/06 10:56:50;;;;;;;2.65;1.80;;;13.20;79.10;;;;;;5052465;28;20037;-83
2022/03/06 10:59:26;;;;;;;4.22;1.73;;;13.30;77.50;;;;;;5052140;28;20041;-83
2022/03/06 11:01:52;;;;;;;4.47;1.95;;;13.60;76.10;;;;;;5052914;28;20055;-83
2022/03/06 11:04:19;;;;;;;3.67;1.80;;;13.20;78.00;;;;;;5051991;28;20047;-83
2022/03/06 11:06:46;;;;;;;4.45;1.90;;;13.40;78.70;;;;;;5035556;28;20043;-82
2022/03/06 11:09:17;;;;;;;3.30;1.90;;;14.00;78.70;;;;;;5035722;28;20500;-83
2022/03/06 11:11:50;;;;;;;5.25;1.88;;;13.80;77.20;;;;;;5049976;28;20041;-83
2022/03/06 11:14:17;;;;;;;3.72;1.92;;;14.40;75.30;;;;;;5049244;28;20029;-82
2022/03/06 11:16:42;;;;;;;2.95;1.90;;;13.60;75.90;;;;;;5051465;28;20043;-82
2022/03/06 11:19:09;;;;;;;5.68;2.10;;;12.20;80.00;;;;;;5019148;28;20029;-82
2022/03/06 11:21:39;;;;;;;4.32;2.15;;;11.80;82.50;;;;;;5032940;28;20057;-83
2022/03/06 11:24:26;;;;;;;3.67;1.80;;;11.80;85.40;;;;;;5036041;28;20071;-83
2022/03/06 11:27:31;;;;;;;3.47;2.00;;;12.30;85.50;;;;;;5034932;28;20037;-81
2022/03/06 11:30:20;;;;;;;3.53;1.90;;;11.90;84.10;;;;;;5034042;28;20504;-81
2022/03/06 11:32:58;;;;;;;4.18;1.92;;;12.20;82.00;;;;;;5050680;28;20045;-80
2022/03/06 11:35:36;;;;;;;3.50;2.00;;;12.00;84.70;;;;;;5050928;28;20041;-79
2022/03/06 11:38:03;;;;;;;4.53;1.90;;;12.50;82.30;;;;;;5051729;28;20037;-79
2022/03/06 11:40:45;;;;;;;3.13;2.00;;;12.50;84.20;;;;;;5051174;28;20037;-80
2022/03/06 11:43:38;;;;;;;4.68;2.10;;;12.40;85.00;;;;;;5045999;28;20048;-80
2022/03/06 11:46:12;;;;;;;3.90;1.92;;;12.20;86.60;;;;;;5049868;28;20116;-80
2022/03/06 11:48:37;;;;;;;3.83;2.08;;;12.30;86.70;;;;;;5050914;28;20107;-80
2022/03/06 11:53:46;;;;;;;3.72;2.20;;;12.00;88.10;;;;;;5051053;28;20496;-81
2022/03/06 11:56:39;;;;;;;5.95;2.20;;;11.90;87.70;;;;;;5051165;28;20044;-81
2022/03/06 11:59:05;;;;;;;4.72;2.03;;;12.00;86.70;;;;;;5051000;28;20044;-81
2022/03/06 12:01:35;;;;;;;4.35;2.10;;;11.80;87.10;;;;;;5034109;28;20480;-83
2022/03/06 12:04:09;;;;;;;5.13;2.17;;;11.60;89.70;;;;;;5049293;28;20041;-83
2022/03/06 12:06:56;;;;;;;4.65;2.10;;;11.20;90.80;;;;;;5050168;28;20032;-85
2022/03/06 12:09:23;;;;;;;;;;;11.00;92.60;;;;;;5051136;28;20071;-85
2022/03/06 12:11:52;;;;;;;3.80;2.05;;;11.20;92.00;;;;;;5050470;28;20397;-83
2022/03/06 12:14:27;;;;;;;3.42;2.38;;;10.90;92.50;;;;;;5027703;28;20146;-84
2022/03/06 12:17:10;;;;;;;4.30;2.15;;;10.50;93.00;;;;;;5050151;28;20446;-84
2022/03/06 12:19:45;;;;;;;5.13;2.50;;;10.10;94.40;;;;;;5049102;28;20044;-85
2022/03/06 12:22:15;;;;;;;4.20;2.10;;;10.10;95.00;;;;;;5045663;28;20088;-83
2022/03/06 12:24:44;;;;;;;3.97;1.88;;;10.30;94.90;;;;;;5032328;28;20040;-83
2022/03/06 12:27:16;;;;;;;4.70;2.15;;;10.50;94.70;;;;;;5049782;28;20043;-84
2022/03/06 12:29:48;;;;;;;4.22;2.33;;;10.50;94.90;;;;;;5048457;28;20136;-81
2022/03/06 12:32:29;;;;;;;4.03;1.80;;;10.30;94.60;;;;;;5031502;28;20049;-82
2022/03/06 12:35:05;;;;;;;4.72;2.10;;;10.10;95.10;;;;;;5048036;28;20492;-84
2022/03/06 12:37:35;;;;;;;4.97;2.13;;;10.10;95.60;;;;;;5030599;28;20034;-82
2022/03/06 12:40:03;;;;;;;3.88;2.00;;;10.40;94.70;;;;;;5033180;28;20515;-84
2022/03/06 12:42:31;;;;;;;3.88;1.80;;;10.40;94.20;;;;;;5031182;28;20090;-84
2022/03/06 12:45:08;;;;;;;3.80;2.05;;;10.40;94.30;;;;;;5032154;28;20048;-83
2022/03/06 12:47:39;;;;;;;4.88;2.00;;;10.20;95.30;;;;;;5048663;28;20419;-83
2022/03/06 12:50:08;;;;;;;3.97;2.10;;;10.00;96.00;;;;;;5049122;28;20032;-83
2022/03/06 12:52:34;;;;;;;3.70;1.90;;;10.00;96.60;;;;;;5047169;28;20554;-83
2022/03/06 12:55:03;;;;;;;;;;;10.10;95.90;;;;;;5016847;28;20120;-83
2022/03/06 12:57:31;;;;;;;4.63;1.95;;;10.10;96.20;;;;;;5032682;28;20353;-83